Time;durP1;ratioP1;P1;durP2;ratioP2;P2;SDS_P1;SDS_P2;PMS_P1;PMS_P2;Temp;Humidity;BMP_temperature;BMP_pressure;BME280_temperature;BME280_humidity;BME280_pressure;Samples;Min_cycle;Max_cycle;Signal;HPM_P1;HPM_P2
2022/01/15 00:01:35;;;;;;;132.70;43.90;;;;;;;2.92;100.00;103136.72;5252252;28;20033;-69
2022/01/15 00:04:07;;;;;;;125.65;42.20;;;;;;;2.96;100.00;103134.09;5255489;28;20033;-69
2022/01/15 00:06:38;;;;;;;126.28;41.47;;;;;;;2.99;100.00;103131.41;5253569;28;20543;-70
2022/01/15 00:09:09;;;;;;;143.98;44.88;;;;;;;2.93;100.00;103129.69;5255273;28;20049;-70
2022/01/15 00:11:41;;;;;;;128.60;43.53;;;;;;;2.96;100.00;103129.69;5260325;28;20827;-69
2022/01/15 00:14:22;;;;;;;129.23;41.72;;;;;;;2.94;100.00;103127.03;5256784;28;20029;-69
2022/01/15 00:17:03;;;;;;;140.20;43.70;;;;;;;2.85;100.00;103131.50;5257423;28;20118;-69
2022/01/15 00:19:45;;;;;;;124.95;42.08;;;;;;;2.92;100.00;103130.59;5254941;28;20463;-69
2022/01/15 00:22:18;;;;;;;122.57;41.10;;;;;;;2.88;100.00;103126.22;5256732;28;20395;-69
2022/01/15 00:24:50;;;;;;;121.30;42.70;;;;;;;2.88;100.00;103120.97;5256382;28;20467;-70
2022/01/15 00:27:21;;;;;;;115.90;40.15;;;;;;;2.88;100.00;103124.47;5257159;28;20063;-70
2022/01/15 00:29:52;;;;;;;123.72;41.30;;;;;;;2.87;100.00;103111.28;5250925;28;20040;-70
2022/01/15 00:32:23;;;;;;;117.45;40.17;;;;;;;2.90;100.00;103114.78;5250817;28;20064;-70
2022/01/15 00:34:55;;;;;;;115.55;38.75;;;;;;;2.86;100.00;103113.06;5250672;28;20036;-70
2022/01/15 00:37:30;;;;;;;109.43;37.17;;;;;;;2.86;100.00;103120.09;5249829;28;20029;-69
2022/01/15 00:40:05;;;;;;;105.13;36.90;;;;;;;2.89;100.00;103114.78;5253554;28;20068;-69
2022/01/15 00:42:38;;;;;;;113.50;39.55;;;;;;;2.84;100.00;103100.75;5253411;28;20116;-69
2022/01/15 00:45:16;;;;;;;108.30;37.83;;;;;;;2.83;100.00;103101.66;5250793;28;20407;-70
2022/01/15 00:47:50;;;;;;;104.15;35.78;;;;;;;2.84;100.00;103100.75;5256571;28;20025;-70
2022/01/15 00:50:21;;;;;;;107.68;37.00;;;;;;;2.75;100.00;103099.94;5256660;28;20028;-69
2022/01/15 00:52:52;;;;;;;104.60;37.00;;;;;;;2.71;100.00;103094.72;5253511;28;20039;-69
2022/01/15 00:55:24;;;;;;;100.00;34.72;;;;;;;2.67;100.00;103101.75;5252634;28;20391;-69
2022/01/15 00:57:55;;;;;;;103.70;34.47;;;;;;;2.70;100.00;103092.94;5254717;28;20124;-70
2022/01/15 01:00:27;;;;;;;110.03;35.72;;;;;;;2.67;100.00;103085.09;5256129;28;20033;-70
2022/01/15 01:02:58;;;;;;;124.22;36.92;;;;;;;2.67;100.00;103083.31;5253783;28;20039;-70
2022/01/15 01:05:30;;;;;;;125.35;37.83;;;;;;;2.63;100.00;103086.00;5258437;28;20033;-69
2022/01/15 01:08:01;;;;;;;113.03;36.03;;;;;;;2.58;100.00;103082.50;5249819;28;20108;-69
2022/01/15 01:10:51;;;;;;;100.43;34.33;;;;;;;2.65;100.00;103076.31;5253701;28;20059;-69
2022/01/15 01:20:04;;;;;;;111.65;36.38;;;;;;;2.64;100.00;103074.56;5250967;28;20025;-69
2022/01/15 01:22:53;;;;;;;104.05;34.40;;;;;;;2.65;100.00;103065.78;5253237;28;20041;-69
2022/01/15 01:25:19;;;;;;;111.70;34.17;;;;;;;2.63;100.00;103064.91;5253179;28;20036;-69
2022/01/15 01:27:54;;;;;;;111.72;34.08;;;;;;;2.66;100.00;103064.88;5251789;28;20540;-69
2022/01/15 01:30:32;;;;;;;101.00;33.72;;;;;;;2.65;100.00;103063.13;5248133;28;20466;-69
2022/01/15 01:33:28;;;;;;;107.82;34.47;;;;;;;2.58;100.00;103061.44;5248289;28;20029;-69
2022/01/15 01:38:56;;;;;;;106.47;33.22;;;;;;;2.62;100.00;103066.66;5253946;28;20427;-69
2022/01/15 01:41:35;;;;;;;101.82;33.78;;;;;;;2.65;100.00;103058.72;5250099;28;20557;-69
2022/01/15 01:44:08;;;;;;;107.05;34.15;;;;;;;2.62;100.00;103057.88;5251532;28;20112;-69
2022/01/15 01:46:48;;;;;;;109.93;34.13;;;;;;;2.57;100.00;103057.03;5253362;28;20079;-69
2022/01/15 01:49:20;;;;;;;108.15;33.47;;;;;;;2.54;100.00;103052.66;5249905;28;20032;-69
2022/01/15 01:51:51;;;;;;;102.40;33.17;;;;;;;2.59;100.00;103048.25;5252301;28;20087;-69
2022/01/15 01:54:22;;;;;;;114.78;33.85;;;;;;;2.55;100.00;103049.13;5254871;28;20505;-69
2022/01/15 01:56:54;;;;;;;105.03;34.15;;;;;;;2.51;100.00;103043.03;5251525;28;20467;-69
2022/01/15 01:59:25;;;;;;;103.80;31.80;;;;;;;2.58;100.00;103042.97;5256405;28;20480;-69
2022/01/15 02:01:56;;;;;;;119.90;35.00;;;;;;;2.50;100.00;103053.56;5251365;28;20061;-69
2022/01/15 02:04:27;;;;;;;109.97;33.42;;;;;;;2.55;100.00;103043.84;5250325;28;20455;-69
2022/01/15 02:07:00;;;;;;;124.43;35.72;;;;;;;2.47;100.00;103048.31;5254157;28;20119;-69
2022/01/15 02:09:31;;;;;;;117.75;34.95;;;;;;;2.51;100.00;103037.75;5253391;28;20056;-69
2022/01/15 02:12:03;;;;;;;109.22;34.63;;;;;;;2.52;100.00;103031.59;5251166;28;20036;-69
2022/01/15 02:14:34;;;;;;;105.90;32.42;;;;;;;2.52;100.00;103042.13;5253115;28;20029;-69
2022/01/15 02:17:05;;;;;;;110.20;33.72;;;;;;;2.51;100.00;103034.22;5251532;28;20130;-69
2022/01/15 02:19:45;;;;;;;102.68;32.13;;;;;;;2.51;100.00;103032.50;5246680;28;20076;-69
2022/01/15 02:25:07;;;;;;;120.43;35.17;;;;;;;2.47;100.00;103035.13;5252258;28;20123;-69
2022/01/15 02:27:38;;;;;;;95.55;31.35;;;;;;;2.47;100.00;103032.50;5250851;28;20483;-69
2022/01/15 02:30:11;;;;;;;95.82;31.88;;;;;;;2.42;100.00;103031.69;5247980;28;20471;-69
2022/01/15 02:32:42;;;;;;;75.25;26.40;;;;;;;2.33;100.00;103027.34;5248050;28;20057;-69
2022/01/15 02:35:14;;;;;;;81.13;27.38;;;;;;;2.25;100.00;103024.75;5248240;28;20482;-69
2022/01/15 02:37:45;;;;;;;83.70;27.65;;;;;;;2.26;100.00;103016.00;5254755;28;20581;-69
2022/01/15 02:40:16;;;;;;;88.25;27.63;;;;;;;2.28;100.00;103014.22;5249253;28;20052;-69
2022/01/15 02:42:48;;;;;;;97.38;29.38;;;;;;;2.21;100.00;103001.97;5254783;28;20190;-69
2022/01/15 02:45:22;;;;;;;83.03;28.88;;;;;;;2.14;100.00;102987.94;5248592;28;20086;-69
2022/01/15 02:48:02;;;;;;;;;;;;;;;2.28;100.00;102986.97;5246799;28;20435;-69
2022/01/15 02:50:34;;;;;;;87.15;26.83;;;;;;;2.16;100.00;102983.53;5247013;28;19981;-69
2022/01/15 02:53:06;;;;;;;87.15;27.60;;;;;;;2.17;100.00;102976.53;5254938;28;20033;-69
2022/01/15 02:55:42;;;;;;;82.53;27.70;;;;;;;2.16;100.00;102974.78;5253642;28;20029;-69
2022/01/15 02:58:15;;;;;;;87.22;29.42;;;;;;;2.12;100.00;102968.66;5248424;28;20570;-69
2022/01/15 03:00:47;;;;;;;83.75;27.95;;;;;;;2.13;100.00;102967.78;5250836;28;20270;-69
2022/01/15 03:03:18;;;;;;;84.30;27.88;;;;;;;2.10;100.00;102970.44;5249389;28;20493;-69
2022/01/15 03:05:49;;;;;;;81.47;27.80;;;;;;;2.07;100.00;102967.84;5246159;28;20040;-69
2022/01/15 03:08:21;;;;;;;89.05;28.30;;;;;;;2.08;100.00;102964.28;5248327;28;20040;-69
2022/01/15 03:10:52;;;;;;;75.82;24.67;;;;;;;2.02;100.00;102958.22;5250563;28;20041;-69
2022/01/15 03:13:23;;;;;;;69.22;23.67;;;;;;;2.06;100.00;102966.06;5245568;28;20692;-69
2022/01/15 03:15:54;;;;;;;72.88;24.73;;;;;;;2.01;100.00;102959.09;5247162;28;20491;-69
2022/01/15 03:18:26;;;;;;;71.88;22.35;;;;;;;1.98;100.00;102961.75;5247327;28;20036;-69
2022/01/15 03:20:57;;;;;;;75.97;24.42;;;;;;;1.91;100.00;102964.41;5251701;28;20367;-69
2022/01/15 03:23:29;;;;;;;65.88;23.42;;;;;;;1.93;100.00;102953.88;5251761;28;20016;-69
2022/01/15 03:26:00;;;;;;;74.68;24.92;;;;;;;1.91;100.00;102959.13;5252470;28;20158;-69
2022/01/15 03:28:32;;;;;;;77.85;25.45;;;;;;;1.94;100.00;102950.38;5251407;28;20330;-69
2022/01/15 03:31:03;;;;;;;72.18;24.35;;;;;;;1.89;100.00;102955.63;5251886;28;20021;-69
2022/01/15 03:33:34;;;;;;;72.00;24.92;;;;;;;1.89;100.00;102949.50;5247318;28;20053;-69
2022/01/15 03:36:07;;;;;;;64.50;23.50;;;;;;;1.87;100.00;102948.66;5246023;28;20033;-69
2022/01/15 03:38:38;;;;;;;65.53;22.92;;;;;;;1.90;100.00;102948.66;5245903;28;20382;-69
2022/01/15 03:41:10;;;;;;;70.82;24.33;;;;;;;1.89;100.00;102945.13;5246968;28;20064;-69
2022/01/15 03:43:41;;;;;;;71.68;25.35;;;;;;;1.94;100.00;102945.09;5245566;28;20047;-69
2022/01/15 03:46:12;;;;;;;79.35;26.60;;;;;;;1.96;100.00;102938.06;5252790;28;20064;-69
2022/01/15 03:48:45;;;;;;;76.28;26.35;;;;;;;1.96;100.00;102938.94;5249068;28;20451;-69
2022/01/15 03:51:19;;;;;;;81.25;26.52;;;;;;;1.91;100.00;102938.06;5248912;28;20033;-69
2022/01/15 03:53:51;;;;;;;71.93;24.60;;;;;;;1.91;100.00;102926.69;5248046;28;20467;-69
2022/01/15 03:56:22;;;;;;;65.93;23.58;;;;;;;1.89;100.00;102925.81;5254058;28;20035;-69
2022/01/15 03:58:53;;;;;;;72.38;24.60;;;;;;;1.92;100.00;102918.78;5249419;28;20648;-69
2022/01/15 04:01:25;;;;;;;69.05;24.20;;;;;;;1.89;100.00;102920.56;5245172;28;20029;-69
2022/01/15 04:03:56;;;;;;;65.95;22.13;;;;;;;1.87;100.00;102924.97;5242126;28;20029;-69
2022/01/15 04:06:27;;;;;;;73.82;24.52;;;;;;;1.91;100.00;102919.66;5239789;28;20031;-69
2022/01/15 04:08:59;;;;;;;70.97;23.73;;;;;;;1.89;100.00;102928.44;5240640;28;20072;-69
2022/01/15 04:11:30;;;;;;;70.03;25.00;;;;;;;1.91;100.00;102924.06;5244989;28;20681;-69
2022/01/15 04:14:02;;;;;;;66.38;24.77;;;;;;;1.94;100.00;102919.66;5243899;28;20155;-69
2022/01/15 04:16:34;;;;;;;75.13;26.10;;;;;;;1.98;100.00;102912.59;5242796;28;20036;-69
2022/01/15 04:19:08;;;;;;;80.95;25.98;;;;;;;1.94;100.00;102910.88;5240224;28;21438;-69
2022/01/15 04:21:40;;;;;;;82.65;25.65;;;;;;;1.92;100.00;102910.03;5243168;28;20965;-69
2022/01/15 04:24:11;;;;;;;71.72;25.58;;;;;;;1.92;100.00;102904.75;5239510;28;20040;-69
2022/01/15 04:26:42;;;;;;;68.20;25.38;;;;;;;1.93;100.00;102906.47;5244940;28;20112;-69
2022/01/15 04:29:15;;;;;;;82.03;27.83;;;;;;;1.87;100.00;102901.28;5246457;28;20033;-69
2022/01/15 04:31:48;;;;;;;76.32;25.85;;;;;;;1.86;100.00;102896.88;5248653;28;20037;-69
2022/01/15 04:34:22;;;;;;;83.82;27.30;;;;;;;1.86;100.00;102899.50;5249332;28;20345;-69
2022/01/15 04:36:59;;;;;;;;;;;;;;;1.96;100.00;102902.06;5253133;28;20033;-69
2022/01/15 04:39:31;;;;;;;77.85;25.77;;;;;;;1.89;100.00;102894.22;5249999;28;19917;-69
2022/01/15 04:42:02;;;;;;;68.22;25.55;;;;;;;1.91;100.00;102897.72;5246929;28;20037;-69
2022/01/15 04:44:33;;;;;;;74.90;25.77;;;;;;;1.89;100.00;102881.06;5245040;28;20033;-69
2022/01/15 04:47:05;;;;;;;71.90;25.77;;;;;;;1.89;100.00;102883.69;5238886;28;20098;-69
2022/01/15 04:49:36;;;;;;;72.55;25.13;;;;;;;1.87;100.00;102881.06;5241712;28;20379;-69
2022/01/15 04:52:07;;;;;;;75.35;25.10;;;;;;;1.86;100.00;102881.97;5240793;28;20039;-69
2022/01/15 04:54:39;;;;;;;86.65;28.15;;;;;;;1.85;100.00;102876.72;5240205;28;20379;-69
2022/01/15 04:57:11;;;;;;;72.75;24.48;;;;;;;1.86;100.00;102873.19;5249721;28;20310;-69
2022/01/15 04:59:42;;;;;;;73.72;25.80;;;;;;;1.82;100.00;102874.97;5247053;28;20642;-69
2022/01/15 05:02:13;;;;;;;69.45;25.73;;;;;;;1.86;100.00;102874.09;5248976;28;20560;-69
2022/01/15 05:04:44;;;;;;;65.07;24.88;;;;;;;1.85;100.00;102867.06;5249702;28;20056;-69
2022/01/15 05:07:16;;;;;;;74.00;26.05;;;;;;;1.90;100.00;102869.69;5245082;28;20037;-69
2022/01/15 05:09:48;;;;;;;72.03;24.95;;;;;;;1.88;100.00;102866.16;5244398;28;20048;-69
2022/01/15 05:12:31;;;;;;;72.78;26.17;;;;;;;1.92;100.00;102862.63;5247416;28;20060;-69
2022/01/15 05:15:03;;;;;;;67.30;25.33;;;;;;;1.94;100.00;102860.88;5241454;28;20639;-69
2022/01/15 05:17:34;;;;;;;73.60;26.60;;;;;;;1.90;100.00;102860.00;5243034;28;20039;-69
2022/01/15 05:20:08;;;;;;;73.78;27.30;;;;;;;1.92;100.00;102858.25;5244771;28;20036;-69
2022/01/15 05:22:39;;;;;;;86.30;28.42;;;;;;;1.86;100.00;102853.03;5249483;28;20378;-69
2022/01/15 05:25:13;;;;;;;72.43;27.73;;;;;;;1.88;100.00;102860.88;5244155;28;20043;-69
2022/01/15 05:27:46;;;;;;;78.22;27.13;;;;;;;1.88;100.00;102851.25;5240117;28;20029;-69
2022/01/15 05:30:17;;;;;;;65.88;26.27;;;;;;;1.92;100.00;102844.22;5243202;28;20031;-69
2022/01/15 05:32:48;;;;;;;70.03;25.95;;;;;;;1.90;100.00;102840.72;5250436;28;20033;-69
2022/01/15 05:35:25;;;;;;;72.07;27.20;;;;;;;1.87;100.00;102830.19;5245479;28;20529;-69
2022/01/15 05:37:58;;;;;;;72.25;27.45;;;;;;;1.83;100.00;102826.72;5242175;28;20025;-69
2022/01/15 05:40:29;;;;;;;74.40;26.50;;;;;;;1.80;100.00;102815.34;5243973;28;20123;-69
2022/01/15 05:43:00;;;;;;;70.90;26.75;;;;;;;1.82;100.00;102824.09;5240411;28;20496;-69
2022/01/15 05:45:32;;;;;;;70.43;28.52;;;;;;;1.80;100.00;102820.59;5244259;28;20138;-69
2022/01/15 05:48:03;;;;;;;72.13;26.90;;;;;;;1.81;100.00;102822.38;5256462;28;20027;-69
2022/01/15 05:50:35;;;;;;;72.00;28.20;;;;;;;1.85;100.00;102809.16;5240370;28;20094;-69
2022/01/15 05:53:06;;;;;;;70.95;27.73;;;;;;;1.88;100.00;102810.88;5248012;28;20037;-69
2022/01/15 05:55:37;;;;;;;73.13;29.33;;;;;;;1.91;100.00;102806.47;5244395;28;20029;-69
2022/01/15 05:58:09;;;;;;;71.95;27.95;;;;;;;1.91;100.00;102809.09;5241440;28;20116;-69
2022/01/15 06:00:40;;;;;;;87.30;30.80;;;;;;;1.86;100.00;102799.50;5247381;28;20040;-69
2022/01/15 06:03:11;;;;;;;76.63;28.23;;;;;;;1.93;100.00;102793.28;5246876;28;20039;-69
2022/01/15 06:05:42;;;;;;;79.97;29.55;;;;;;;1.90;100.00;102801.25;5245703;28;20036;-69
2022/01/15 06:08:14;;;;;;;71.30;28.10;;;;;;;1.89;100.00;102794.22;5249964;28;20039;-69
2022/01/15 06:10:45;;;;;;;72.82;27.88;;;;;;;1.89;100.00;102794.22;5245155;28;20084;-69
2022/01/15 06:13:16;;;;;;;67.68;27.00;;;;;;;1.92;100.00;102786.31;5240876;28;20056;-69
2022/01/15 06:15:47;;;;;;;66.45;25.88;;;;;;;1.96;100.00;102788.00;5243597;28;20084;-69
2022/01/15 06:18:19;;;;;;;74.07;27.05;;;;;;;1.89;100.00;102792.44;5240802;28;20029;-69
2022/01/15 06:20:50;;;;;;;73.25;27.33;;;;;;;1.90;100.00;102793.34;5243013;28;20501;-69
2022/01/15 06:23:21;;;;;;;69.60;26.08;;;;;;;1.88;100.00;102787.19;5243621;28;20474;-69
2022/01/15 06:25:52;;;;;;;77.85;26.25;;;;;;;1.86;100.00;102783.69;5239664;28;20165;-69
2022/01/15 06:28:24;;;;;;;74.43;27.05;;;;;;;1.87;100.00;102786.31;5239753;28;20029;-69
2022/01/15 06:30:55;;;;;;;76.72;26.27;;;;;;;1.84;100.00;102783.72;5245294;28;20534;-69
2022/01/15 06:33:26;;;;;;;93.45;26.88;;;;;;;1.83;100.00;102783.75;5246950;28;20116;-69
2022/01/15 06:35:58;;;;;;;73.72;26.83;;;;;;;1.80;100.00;102784.63;5242077;28;20033;-69
2022/01/15 06:38:30;;;;;;;80.30;26.33;;;;;;;1.86;100.00;102783.69;5243300;28;20094;-69
2022/01/15 06:41:01;;;;;;;91.93;28.00;;;;;;;1.79;100.00;102777.63;5238930;28;20029;-69
2022/01/15 06:43:32;;;;;;;88.78;26.00;;;;;;;1.80;100.00;102782.00;5240273;28;20037;-69
2022/01/15 06:46:03;;;;;;;74.18;24.85;;;;;;;1.82;100.00;102781.97;5241545;28;20155;-69
2022/01/15 06:48:35;;;;;;;71.95;25.98;;;;;;;1.86;100.00;102774.06;5249006;28;20028;-69
2022/01/15 06:51:06;;;;;;;75.72;25.67;;;;;;;1.84;100.00;102765.31;5251475;28;20041;-69
2022/01/15 06:53:37;;;;;;;83.72;27.48;;;;;;;1.87;100.00;102774.94;5241158;28;20502;-69
2022/01/15 06:56:08;;;;;;;74.90;26.92;;;;;;;1.86;100.00;102773.16;5249483;28;20025;-69
2022/01/15 06:58:40;;;;;;;86.50;26.67;;;;;;;1.87;100.00;102777.56;5235611;28;20166;-69
2022/01/15 07:01:11;;;;;;;86.47;25.92;;;;;;;1.90;100.00;102775.78;5246544;28;20037;-69
2022/01/15 07:03:42;;;;;;;86.65;26.65;;;;;;;1.87;100.00;102772.28;5248523;28;20040;-69
2022/01/15 07:06:14;;;;;;;88.40;26.80;;;;;;;1.86;100.00;102778.44;5252655;28;20219;-69
2022/01/15 07:08:45;;;;;;;88.95;27.40;;;;;;;1.88;100.00;102776.66;5249418;28;20045;-69
2022/01/15 07:11:16;;;;;;;74.53;26.23;;;;;;;1.94;100.00;102776.63;5249204;28;20233;-69
2022/01/15 07:13:48;;;;;;;90.00;27.60;;;;;;;1.91;100.00;102771.38;5249111;28;20033;-69
2022/01/15 07:16:19;;;;;;;76.25;25.92;;;;;;;1.96;100.00;102783.59;5255004;28;20020;-69
2022/01/15 07:18:50;;;;;;;76.20;26.77;;;;;;;1.99;100.00;102773.94;5245983;28;20035;-69
2022/01/15 07:21:21;;;;;;;86.50;28.10;;;;;;;1.99;100.00;102776.56;5250551;28;20382;-69
2022/01/15 07:23:53;;;;;;;72.70;26.17;;;;;;;1.95;100.00;102773.97;5249999;28;20445;-69
2022/01/15 07:26:24;;;;;;;76.95;25.48;;;;;;;1.90;100.00;102767.88;5247516;28;20540;-69
2022/01/15 07:28:57;;;;;;;79.47;22.83;;;;;;;1.89;100.00;102768.75;5248699;28;20398;-69
2022/01/15 07:31:28;;;;;;;71.38;24.83;;;;;;;1.90;100.00;102773.16;5252081;28;20040;-69
2022/01/15 07:34:00;;;;;;;77.85;24.10;;;;;;;1.86;100.00;102774.06;5253059;28;20025;-69
2022/01/15 07:36:31;;;;;;;62.65;20.70;;;;;;;1.89;100.00;102776.66;5249487;28;20024;-69
2022/01/15 07:39:04;;;;;;;54.20;19.83;;;;;;;1.88;100.00;102777.56;5250408;28;20453;-69
2022/01/15 07:41:36;;;;;;;53.35;19.23;;;;;;;1.88;100.00;102771.38;5250708;28;20035;-69
2022/01/15 07:44:07;;;;;;;56.55;20.83;;;;;;;1.89;100.00;102771.38;5249537;28;20407;-69
2022/01/15 07:46:39;;;;;;;63.83;20.30;;;;;;;1.82;100.00;102769.69;5250388;28;20040;-69
2022/01/15 07:49:10;;;;;;;58.80;19.02;;;;;;;1.80;100.00;102778.50;5250681;28;20083;-69
2022/01/15 07:51:41;;;;;;;54.88;17.83;;;;;;;1.78;100.00;102778.50;5251693;28;20021;-69
2022/01/15 07:54:12;;;;;;;46.03;18.20;;;;;;;1.80;100.00;102786.38;5250670;28;20382;-69
2022/01/15 07:56:44;;;;;;;105.97;20.08;;;;;;;1.75;100.00;102786.44;5250194;28;20113;-69
2022/01/15 07:59:15;;;;;;;84.15;19.55;;;;;;;1.71;100.00;102788.22;5254050;28;20147;-69
2022/01/15 08:01:46;;;;;;;42.83;17.17;;;;;;;1.73;100.00;102794.34;5251779;28;20044;-69
2022/01/15 08:04:18;;;;;;;74.35;16.90;;;;;;;1.64;100.00;102793.53;5246060;28;20103;-69
2022/01/15 08:06:49;;;;;;;40.22;17.00;;;;;;;1.65;100.00;102788.28;5247110;28;20027;-69
2022/01/15 08:09:20;;;;;;;47.30;17.67;;;;;;;1.64;100.00;102798.81;5248820;28;20060;-69
2022/01/15 08:11:51;;;;;;;42.67;17.35;;;;;;;1.65;100.00;102790.00;5250885;28;20036;-69
2022/01/15 08:14:23;;;;;;;58.17;17.67;;;;;;;1.62;100.00;102785.66;5251601;28;20542;-69
2022/01/15 08:16:54;;;;;;;63.30;17.38;;;;;;;1.60;100.00;102783.94;5251329;28;20029;-69
2022/01/15 08:19:25;;;;;;;50.00;17.58;;;;;;;1.60;100.00;102783.94;5248560;28;20087;-69
2022/01/15 08:21:57;;;;;;;47.90;17.63;;;;;;;1.54;100.00;102779.59;5250616;28;20033;-69
2022/01/15 08:24:28;;;;;;;58.42;17.88;;;;;;;1.54;100.00;102776.97;5252661;28;20383;-69
2022/01/15 08:26:59;;;;;;;69.35;18.80;;;;;;;1.46;100.00;102771.75;5251169;28;20487;-69
2022/01/15 08:29:30;;;;;;;51.88;17.70;;;;;;;1.51;100.00;102776.97;5250218;28;20496;-70
2022/01/15 08:32:03;;;;;;;44.00;18.80;;;;;;;1.54;100.00;102767.31;5249560;28;20293;-69
2022/01/15 08:34:34;;;;;;;41.83;18.38;;;;;;;1.59;100.00;102764.63;5252580;28;20025;-69
2022/01/15 08:37:05;;;;;;;65.05;20.08;;;;;;;1.49;100.00;102776.97;5256292;28;20047;-69
2022/01/15 08:39:38;;;;;;;47.67;18.45;;;;;;;1.60;100.00;102763.75;5256153;28;20041;-69
2022/01/15 08:42:09;;;;;;;59.40;20.70;;;;;;;1.61;100.00;102767.25;5253056;28;20035;-69
2022/01/15 08:44:43;;;;;;;44.78;19.02;;;;;;;1.60;100.00;102769.00;5252971;28;20343;-69
2022/01/15 08:47:15;;;;;;;40.28;18.98;;;;;;;1.65;100.00;102772.50;5255660;28;20029;-69
2022/01/15 08:49:47;;;;;;;52.00;20.35;;;;;;;1.59;100.00;102775.16;5256189;28;20083;-69
2022/01/15 08:52:18;;;;;;;57.25;21.35;;;;;;;1.56;100.00;102775.19;5252474;28;20025;-69
2022/01/15 08:54:49;;;;;;;53.58;21.00;;;;;;;1.54;100.00;102772.56;5249325;28;20076;-71
2022/01/15 08:57:21;;;;;;;45.67;19.77;;;;;;;1.53;100.00;102769.94;5255281;28;20104;-73
2022/01/15 08:59:52;;;;;;;52.67;21.00;;;;;;;1.49;100.00;102771.72;5256197;28;20045;-71
2022/01/15 09:02:24;;;;;;;49.08;20.75;;;;;;;1.48;100.00;102771.75;5257369;28;20044;-72
2022/01/15 09:04:55;;;;;;;53.92;21.02;;;;;;;1.46;100.00;102770.84;5254621;28;20114;-69
2022/01/15 09:07:26;;;;;;;54.05;21.67;;;;;;;1.44;100.00;102773.53;5257321;28;20037;-69
2022/01/15 09:09:57;;;;;;;50.95;21.83;;;;;;;1.37;100.00;102767.41;5257599;28;20166;-69
2022/01/15 09:12:29;;;;;;;54.75;21.63;;;;;;;1.39;100.00;102769.19;5258546;28;20036;-69
2022/01/15 09:15:00;;;;;;;57.90;23.33;;;;;;;1.43;100.00;102760.38;5253301;28;20032;-69
2022/01/15 09:17:32;;;;;;;58.25;20.67;;;;;;;1.39;100.00;102763.91;5257883;28;20548;-69
2022/01/15 09:20:04;;;;;;;58.78;23.60;;;;;;;1.37;100.00;102754.28;5254553;28;20025;-69
2022/01/15 09:22:35;;;;;;;51.28;21.88;;;;;;;1.39;100.00;102761.28;5256188;28;20021;-69
2022/01/15 09:25:07;;;;;;;65.63;24.23;;;;;;;1.38;100.00;102760.41;5256540;28;20491;-69
2022/01/15 09:30:29;;;;;;;59.95;25.30;;;;;;;1.45;100.00;102750.72;5257831;28;20032;-69
2022/01/15 09:33:02;;;;;;;55.35;24.63;;;;;;;1.46;100.00;102737.56;5255149;28;20033;-69
2022/01/15 09:35:34;;;;;;;62.05;22.90;;;;;;;1.44;100.00;102743.69;5256894;28;20039;-69
2022/01/15 09:38:06;;;;;;;55.08;23.60;;;;;;;1.48;100.00;102740.19;5254126;28;20032;-69
2022/01/15 09:40:40;;;;;;;59.30;24.13;;;;;;;1.50;100.00;102736.66;5259263;28;20036;-69
2022/01/15 09:43:13;;;;;;;57.05;24.40;;;;;;;1.51;100.00;102738.38;5257434;28;20033;-69
2022/01/15 09:45:45;;;;;;;54.83;24.48;;;;;;;1.53;100.00;102733.09;5254217;28;20032;-69
2022/01/15 09:48:16;;;;;;;58.88;24.90;;;;;;;1.59;100.00;102727.78;5258478;28;20029;-69
2022/01/15 09:50:47;;;;;;;65.78;24.83;;;;;;;1.60;100.00;102724.28;5256298;28;20037;-69
2022/01/15 09:53:20;;;;;;;57.67;25.13;;;;;;;1.70;100.00;102731.19;5259688;28;20482;-69
2022/01/15 09:55:52;;;;;;;59.45;24.70;;;;;;;1.67;100.00;102735.63;5255319;28;20061;-69
2022/01/15 09:58:23;;;;;;;58.88;25.45;;;;;;;1.68;100.00;102737.38;5255025;28;20367;-69
2022/01/15 10:00:55;;;;;;;55.97;24.75;;;;;;;1.70;100.00;102735.59;5256064;28;20040;-69
2022/01/15 10:03:26;;;;;;;54.45;25.02;;;;;;;1.76;100.00;102736.44;5253782;28;20036;-69
2022/01/15 10:06:03;;;;;;;59.22;25.27;;;;;;;1.79;100.00;102732.88;5256416;28;20487;-69
2022/01/15 10:08:34;;;;;;;65.18;26.23;;;;;;;1.81;100.00;102743.41;5255831;28;20037;-69
2022/01/15 10:11:11;;;;;;;59.58;25.77;;;;;;;1.83;100.00;102736.38;5254005;28;20056;-69
2022/01/15 10:13:44;;;;;;;64.25;26.48;;;;;;;1.79;100.00;102734.66;5254188;28;20025;-69
2022/01/15 10:16:21;;;;;;;63.38;25.73;;;;;;;1.86;100.00;102733.69;5255688;28;20020;-69
2022/01/15 10:18:52;;;;;;;70.20;28.10;;;;;;;1.85;100.00;102740.72;5253995;28;20035;-69
2022/01/15 10:21:25;;;;;;;77.57;28.48;;;;;;;1.84;100.00;102744.25;5257666;28;20474;-69
2022/01/15 10:23:58;;;;;;;64.67;27.77;;;;;;;1.90;100.00;102740.69;5255623;28;20055;-69
2022/01/15 10:26:36;;;;;;;71.80;27.85;;;;;;;1.90;100.00;102733.66;5256847;28;20445;-69
2022/01/15 10:29:08;;;;;;;74.97;29.33;;;;;;;1.89;100.00;102726.63;5258686;28;20035;-69
2022/01/15 10:31:42;;;;;;;72.32;28.33;;;;;;;1.95;100.00;102726.56;5256098;28;20467;-69
2022/01/15 10:34:28;;;;;;;74.30;28.75;;;;;;;1.99;100.00;102721.28;5254955;28;20041;-69
2022/01/15 10:37:06;;;;;;;78.40;29.63;;;;;;;1.99;100.00;102719.53;5256601;28;20029;-69
2022/01/15 10:39:39;;;;;;;71.97;29.15;;;;;;;2.01;100.00;102717.75;5253026;28;20374;-69
2022/01/15 10:42:19;;;;;;;77.28;29.75;;;;;;;1.97;100.00;102716.03;5254556;28;20029;-69
2022/01/15 10:44:55;;;;;;;75.15;31.02;;;;;;;1.99;100.00;102724.78;5255716;28;20017;-69
2022/01/15 10:47:28;;;;;;;77.88;30.40;;;;;;;1.94;100.00;102721.34;5253775;28;20227;-69
2022/01/15 10:50:03;;;;;;;74.75;27.95;;;;;;;2.01;100.00;102719.50;5256043;28;20028;-69
2022/01/15 10:52:34;;;;;;;72.53;29.27;;;;;;;2.06;100.00;102726.47;5251213;28;20466;-69
2022/01/15 10:55:07;;;;;;;68.47;27.75;;;;;;;2.09;100.00;102721.19;5255646;28;20033;-69
2022/01/15 10:57:52;;;;;;;68.03;29.00;;;;;;;2.15;100.00;102707.94;5254483;28;20043;-69
2022/01/15 11:00:30;;;;;;;71.05;27.60;;;;;;;2.16;100.00;102706.19;5256042;28;20036;-69
2022/01/15 11:03:03;;;;;;;75.13;27.83;;;;;;;2.18;100.00;102707.03;5254611;28;20077;-69
2022/01/15 11:05:39;;;;;;;78.35;28.10;;;;;;;2.14;100.00;102703.56;5253151;28;20028;-69
2022/01/15 11:08:15;;;;;;;65.82;26.63;;;;;;;2.18;100.00;102709.66;5259327;28;20028;-69
2022/01/15 11:10:50;;;;;;;62.45;25.30;;;;;;;2.22;100.00;102707.88;5255326;28;20033;-69
2022/01/15 11:13:28;;;;;;;64.72;25.83;;;;;;;2.24;100.00;102698.19;5254727;28;20033;-69
2022/01/15 11:16:12;;;;;;;78.90;26.63;;;;;;;2.18;100.00;102695.63;5254771;28;20029;-69
2022/01/15 11:18:54;;;;;;;68.18;26.38;;;;;;;2.20;100.00;102683.31;5254345;28;20108;-69
2022/01/15 11:21:29;;;;;;;73.00;27.08;;;;;;;2.22;100.00;102687.66;5250368;28;20021;-69
2022/01/15 11:24:06;;;;;;;71.38;27.33;;;;;;;2.27;100.00;102688.50;5253282;28;20029;-69
2022/01/15 11:26:38;;;;;;;72.47;29.10;;;;;;;2.30;100.00;102687.56;5249325;28;20031;-69
2022/01/15 11:29:11;;;;;;;71.75;28.63;;;;;;;2.39;100.00;102694.50;5247412;28;20028;-69
2022/01/15 11:31:43;;;;;;;68.93;26.52;;;;;;;2.33;100.00;102688.41;5248512;28;20040;-69
2022/01/15 11:34:16;;;;;;;63.97;26.48;;;;;;;2.40;100.00;102691.84;5251973;28;20033;-69
2022/01/15 11:36:47;;;;;;;70.55;27.90;;;;;;;2.44;100.00;102677.75;5251717;28;20414;-69
2022/01/15 11:39:22;;;;;;;62.80;25.95;;;;;;;2.48;100.00;102668.91;5249825;28;20025;-69
2022/01/15 11:41:53;;;;;;;;;;;;;;;2.64;100.00;102672.19;5247129;28;20032;-69
2022/01/15 11:44:27;;;;;;;59.97;23.90;;;;;;;2.55;100.00;102665.31;5248054;28;20301;-69
2022/01/15 11:47:12;;;;;;;57.85;25.00;;;;;;;2.55;100.00;102667.06;5248016;28;20033;-69
2022/01/15 11:49:45;;;;;;;64.18;25.50;;;;;;;2.55;100.00;102659.16;5251954;28;20033;-69